sensor_id;sensor_type;location;lat;lon;timestamp;P1;durP1;ratioP1;P2;durP2;ratioP2
40983;SDS011;26714;51.332;12.406;2024-01-11T00:00:48;66.90;;;24.10;;
40983;SDS011;26714;51.332;12.406;2024-01-11T00:03:14;77.80;;;26.80;;
40983;SDS011;26714;51.332;12.406;2024-01-11T00:05:41;72.37;;;25.57;;
40983;SDS011;26714;51.332;12.406;2024-01-11T00:08:07;73.00;;;25.97;;
40983;SDS011;26714;51.332;12.406;2024-01-11T00:10:32;75.37;;;27.23;;
40983;SDS011;26714;51.332;12.406;2024-01-11T00:12:58;77.77;;;27.70;;
40983;SDS011;26714;51.332;12.406;2024-01-11T00:15:23;70.67;;;25.10;;
40983;SDS011;26714;51.332;12.406;2024-01-11T00:17:50;71.60;;;26.30;;
40983;SDS011;26714;51.332;12.406;2024-01-11T00:20:16;72.60;;;25.43;;
40983;SDS011;26714;51.332;12.406;2024-01-11T00:22:43;74.23;;;27.33;;
40983;SDS011;26714;51.332;12.406;2024-01-11T00:25:09;79.93;;;29.30;;
40983;SDS011;26714;51.332;12.406;2024-01-11T00:27:34;82.97;;;27.47;;
40983;SDS011;26714;51.332;12.406;2024-01-11T00:30:00;79.63;;;27.80;;
40983;SDS011;26714;51.332;12.406;2024-01-11T00:32:25;79.20;;;25.90;;
40983;SDS011;26714;51.332;12.406;2024-01-11T00:34:53;71.63;;;26.73;;
40983;SDS011;26714;51.332;12.406;2024-01-11T00:37:18;77.83;;;25.60;;
40983;SDS011;26714;51.332;12.406;2024-01-11T00:39:44;79.57;;;26.57;;
40983;SDS011;26714;51.332;12.406;2024-01-11T00:42:10;86.03;;;25.97;;
40983;SDS011;26714;51.332;12.406;2024-01-11T00:44:36;72.87;;;26.27;;
40983;SDS011;26714;51.332;12.406;2024-01-11T00:47:02;76.47;;;27.27;;
40983;SDS011;26714;51.332;12.406;2024-01-11T00:49:27;67.27;;;24.47;;
40983;SDS011;26714;51.332;12.406;2024-01-11T00:51:53;71.90;;;26.63;;
40983;SDS011;26714;51.332;12.406;2024-01-11T00:54:18;75.27;;;24.60;;
40983;SDS011;26714;51.332;12.406;2024-01-11T00:56:44;69.27;;;23.83;;
40983;SDS011;26714;51.332;12.406;2024-01-11T00:59:09;67.57;;;24.80;;
40983;SDS011;26714;51.332;12.406;2024-01-11T01:01:35;77.83;;;26.27;;
40983;SDS011;26714;51.332;12.406;2024-01-11T01:04:00;69.93;;;23.47;;
40983;SDS011;26714;51.332;12.406;2024-01-11T01:06:26;67.60;;;26.17;;
40983;SDS011;26714;51.332;12.406;2024-01-11T01:08:52;64.13;;;25.17;;
40983;SDS011;26714;51.332;12.406;2024-01-11T01:11:17;73.97;;;24.77;;
40983;SDS011;26714;51.332;12.406;2024-01-11T01:13:43;71.47;;;24.30;;
40983;SDS011;26714;51.332;12.406;2024-01-11T01:16:08;79.77;;;26.17;;
40983;SDS011;26714;51.332;12.406;2024-01-11T01:18:34;74.67;;;22.40;;
40983;SDS011;26714;51.332;12.406;2024-01-11T01:20:59;70.80;;;23.97;;
40983;SDS011;26714;51.332;12.406;2024-01-11T01:23:25;71.50;;;24.40;;
40983;SDS011;26714;51.332;12.406;2024-01-11T01:25:50;73.30;;;25.07;;
40983;SDS011;26714;51.332;12.406;2024-01-11T01:28:16;64.63;;;22.80;;
40983;SDS011;26714;51.332;12.406;2024-01-11T01:30:43;68.03;;;24.20;;
40983;SDS011;26714;51.332;12.406;2024-01-11T01:33:09;64.87;;;24.50;;
40983;SDS011;26714;51.332;12.406;2024-01-11T01:35:35;65.00;;;23.97;;
40983;SDS011;26714;51.332;12.406;2024-01-11T01:38:00;80.80;;;26.73;;
40983;SDS011;26714;51.332;12.406;2024-01-11T01:40:26;68.07;;;24.37;;
40983;SDS011;26714;51.332;12.406;2024-01-11T01:42:57;67.47;;;24.20;;
40983;SDS011;26714;51.332;12.406;2024-01-11T01:45:23;72.47;;;25.13;;
40983;SDS011;26714;51.332;12.406;2024-01-11T01:47:49;65.93;;;24.73;;
40983;SDS011;26714;51.332;12.406;2024-01-11T01:50:15;66.23;;;23.43;;
40983;SDS011;26714;51.332;12.406;2024-01-11T01:52:42;68.10;;;23.50;;
40983;SDS011;26714;51.332;12.406;2024-01-11T01:55:09;67.00;;;25.17;;
40983;SDS011;26714;51.332;12.406;2024-01-11T01:57:35;66.83;;;24.83;;
40983;SDS011;26714;51.332;12.406;2024-01-11T02:00:02;74.10;;;23.87;;
40983;SDS011;26714;51.332;12.406;2024-01-11T02:02:41;74.77;;;25.47;;
40983;SDS011;26714;51.332;12.406;2024-01-11T02:05:08;62.67;;;23.33;;
40983;SDS011;26714;51.332;12.406;2024-01-11T02:07:36;70.87;;;23.33;;
40983;SDS011;26714;51.332;12.406;2024-01-11T02:10:02;72.33;;;22.70;;
40983;SDS011;26714;51.332;12.406;2024-01-11T02:12:29;71.40;;;23.33;;
40983;SDS011;26714;51.332;12.406;2024-01-11T02:14:54;72.87;;;24.17;;
40983;SDS011;26714;51.332;12.406;2024-01-11T02:17:20;69.03;;;23.77;;
40983;SDS011;26714;51.332;12.406;2024-01-11T02:19:46;66.27;;;23.37;;
40983;SDS011;26714;51.332;12.406;2024-01-11T02:22:18;74.10;;;25.10;;
40983;SDS011;26714;51.332;12.406;2024-01-11T02:24:46;72.20;;;24.57;;
40983;SDS011;26714;51.332;12.406;2024-01-11T02:27:12;65.80;;;22.90;;
40983;SDS011;26714;51.332;12.406;2024-01-11T02:29:39;64.97;;;24.13;;
40983;SDS011;26714;51.332;12.406;2024-01-11T02:32:05;71.17;;;26.33;;
40983;SDS011;26714;51.332;12.406;2024-01-11T02:34:32;65.73;;;23.00;;
40983;SDS011;26714;51.332;12.406;2024-01-11T02:37:00;63.90;;;23.40;;
40983;SDS011;26714;51.332;12.406;2024-01-11T02:39:25;72.60;;;25.07;;
40983;SDS011;26714;51.332;12.406;2024-01-11T02:41:56;61.07;;;23.73;;
40983;SDS011;26714;51.332;12.406;2024-01-11T02:44:23;62.03;;;22.67;;
40983;SDS011;26714;51.332;12.406;2024-01-11T02:46:49;61.60;;;22.83;;
40983;SDS011;26714;51.332;12.406;2024-01-11T02:49:15;68.27;;;23.80;;
40983;SDS011;26714;51.332;12.406;2024-01-11T02:51:41;63.43;;;24.07;;
40983;SDS011;26714;51.332;12.406;2024-01-11T02:54:06;64.87;;;22.80;;
40983;SDS011;26714;51.332;12.406;2024-01-11T02:56:32;63.83;;;23.17;;
40983;SDS011;26714;51.332;12.406;2024-01-11T02:58:58;69.53;;;23.77;;
40983;SDS011;26714;51.332;12.406;2024-01-11T03:01:24;74.70;;;25.50;;
40983;SDS011;26714;51.332;12.406;2024-01-11T03:03:49;67.73;;;24.63;;
40983;SDS011;26714;51.332;12.406;2024-01-11T03:06:16;67.73;;;23.63;;
40983;SDS011;26714;51.332;12.406;2024-01-11T03:08:49;71.63;;;24.87;;
40983;SDS011;26714;51.332;12.406;2024-01-11T03:13:41;60.00;;;20.10;;
40983;SDS011;26714;51.332;12.406;2024-01-11T03:16:08;65.00;;;22.43;;
40983;SDS011;26714;51.332;12.406;2024-01-11T03:18:34;64.87;;;24.80;;
40983;SDS011;26714;51.332;12.406;2024-01-11T03:21:00;69.33;;;23.70;;
40983;SDS011;26714;51.332;12.406;2024-01-11T03:23:27;63.43;;;23.47;;
40983;SDS011;26714;51.332;12.406;2024-01-11T03:25:53;60.37;;;24.13;;
40983;SDS011;26714;51.332;12.406;2024-01-11T03:28:18;66.40;;;23.47;;
40983;SDS011;26714;51.332;12.406;2024-01-11T03:30:44;64.80;;;22.70;;
40983;SDS011;26714;51.332;12.406;2024-01-11T03:33:10;59.13;;;23.20;;
40983;SDS011;26714;51.332;12.406;2024-01-11T03:35:35;60.90;;;22.17;;
40983;SDS011;26714;51.332;12.406;2024-01-11T03:38:04;62.65;;;23.15;;
40983;SDS011;26714;51.332;12.406;2024-01-11T03:40:30;69.93;;;24.50;;
40983;SDS011;26714;51.332;12.406;2024-01-11T03:42:56;61.73;;;23.17;;
40983;SDS011;26714;51.332;12.406;2024-01-11T03:45:22;69.03;;;22.00;;
40983;SDS011;26714;51.332;12.406;2024-01-11T03:47:48;57.77;;;22.27;;
40983;SDS011;26714;51.332;12.406;2024-01-11T03:50:13;62.27;;;22.03;;
40983;SDS011;26714;51.332;12.406;2024-01-11T03:52:39;57.47;;;21.33;;
40983;SDS011;26714;51.332;12.406;2024-01-11T03:55:05;57.20;;;20.60;;
40983;SDS011;26714;51.332;12.406;2024-01-11T03:57:30;68.37;;;21.60;;
40983;SDS011;26714;51.332;12.406;2024-01-11T03:59:56;56.30;;;20.90;;
40983;SDS011;26714;51.332;12.406;2024-01-11T04:02:22;59.57;;;21.07;;
40983;SDS011;26714;51.332;12.406;2024-01-11T04:04:47;60.03;;;22.03;;
40983;SDS011;26714;51.332;12.406;2024-01-11T04:07:13;69.17;;;22.80;;
40983;SDS011;26714;51.332;12.406;2024-01-11T04:09:41;62.15;;;21.27;;
40983;SDS011;26714;51.332;12.406;2024-01-11T04:12:07;58.50;;;21.60;;
40983;SDS011;26714;51.332;12.406;2024-01-11T04:14:37;56.77;;;21.60;;
40983;SDS011;26714;51.332;12.406;2024-01-11T04:19:28;53.67;;;20.87;;
40983;SDS011;26714;51.332;12.406;2024-01-11T04:21:54;59.77;;;20.00;;
40983;SDS011;26714;51.332;12.406;2024-01-11T04:24:20;63.03;;;20.53;;
40983;SDS011;26714;51.332;12.406;2024-01-11T04:26:48;60.78;;;23.13;;
40983;SDS011;26714;51.332;12.406;2024-01-11T04:29:14;71.53;;;22.77;;
40983;SDS011;26714;51.332;12.406;2024-01-11T04:31:39;63.40;;;22.37;;
40983;SDS011;26714;51.332;12.406;2024-01-11T04:34:05;69.33;;;22.50;;
40983;SDS011;26714;51.332;12.406;2024-01-11T04:36:31;60.97;;;23.17;;
40983;SDS011;26714;51.332;12.406;2024-01-11T04:38:56;54.97;;;20.73;;
40983;SDS011;26714;51.332;12.406;2024-01-11T04:41:26;74.60;;;22.98;;
40983;SDS011;26714;51.332;12.406;2024-01-11T04:43:52;74.90;;;23.77;;
40983;SDS011;26714;51.332;12.406;2024-01-11T04:46:20;67.93;;;23.57;;
40983;SDS011;26714;51.332;12.406;2024-01-11T04:48:47;62.30;;;22.27;;
40983;SDS011;26714;51.332;12.406;2024-01-11T04:51:14;70.97;;;23.00;;
40983;SDS011;26714;51.332;12.406;2024-01-11T04:53:40;61.57;;;22.47;;
40983;SDS011;26714;51.332;12.406;2024-01-11T04:56:07;63.13;;;23.33;;
40983;SDS011;26714;51.332;12.406;2024-01-11T04:58:34;68.80;;;23.87;;
40983;SDS011;26714;51.332;12.406;2024-01-11T05:00:59;62.50;;;23.87;;
40983;SDS011;26714;51.332;12.406;2024-01-11T05:03:25;67.70;;;23.93;;
40983;SDS011;26714;51.332;12.406;2024-01-11T05:05:51;64.70;;;20.53;;
40983;SDS011;26714;51.332;12.406;2024-01-11T05:08:17;53.13;;;21.23;;
40983;SDS011;26714;51.332;12.406;2024-01-11T05:10:42;58.97;;;21.50;;
40983;SDS011;26714;51.332;12.406;2024-01-11T05:13:08;63.03;;;21.20;;
40983;SDS011;26714;51.332;12.406;2024-01-11T05:15:35;68.37;;;21.03;;
40983;SDS011;26714;51.332;12.406;2024-01-11T05:18:00;62.83;;;21.73;;
40983;SDS011;26714;51.332;12.406;2024-01-11T05:20:26;59.93;;;20.33;;
40983;SDS011;26714;51.332;12.406;2024-01-11T05:22:52;69.90;;;22.43;;
40983;SDS011;26714;51.332;12.406;2024-01-11T05:25:17;62.73;;;21.33;;
40983;SDS011;26714;51.332;12.406;2024-01-11T05:27:43;56.37;;;22.67;;
40983;SDS011;26714;51.332;12.406;2024-01-11T05:30:12;65.30;;;21.63;;
40983;SDS011;26714;51.332;12.406;2024-01-11T05:32:39;67.43;;;22.70;;
40983;SDS011;26714;51.332;12.406;2024-01-11T05:35:04;58.40;;;21.57;;
40983;SDS011;26714;51.332;12.406;2024-01-11T05:37:31;53.40;;;20.20;;
40983;SDS011;26714;51.332;12.406;2024-01-11T05:40:00;66.83;;;21.10;;
40983;SDS011;26714;51.332;12.406;2024-01-11T05:42:26;69.17;;;22.80;;
40983;SDS011;26714;51.332;12.406;2024-01-11T05:44:52;66.13;;;23.10;;
40983;SDS011;26714;51.332;12.406;2024-01-11T05:47:19;55.10;;;20.83;;
40983;SDS011;26714;51.332;12.406;2024-01-11T05:49:45;61.30;;;22.50;;
40983;SDS011;26714;51.332;12.406;2024-01-11T05:52:13;63.42;;;23.40;;
40983;SDS011;26714;51.332;12.406;2024-01-11T05:54:39;58.33;;;21.53;;
40983;SDS011;26714;51.332;12.406;2024-01-11T05:57:05;59.73;;;21.77;;
40983;SDS011;26714;51.332;12.406;2024-01-11T05:59:32;63.53;;;21.10;;
40983;SDS011;26714;51.332;12.406;2024-01-11T06:01:58;79.00;;;24.40;;
40983;SDS011;26714;51.332;12.406;2024-01-11T06:04:26;66.90;;;22.70;;
40983;SDS011;26714;51.332;12.406;2024-01-11T06:06:52;66.63;;;22.07;;
40983;SDS011;26714;51.332;12.406;2024-01-11T06:09:18;62.27;;;21.90;;
40983;SDS011;26714;51.332;12.406;2024-01-11T06:11:43;77.07;;;22.17;;
40983;SDS011;26714;51.332;12.406;2024-01-11T06:14:09;68.03;;;21.37;;
40983;SDS011;26714;51.332;12.406;2024-01-11T06:16:35;63.97;;;21.33;;
40983;SDS011;26714;51.332;12.406;2024-01-11T06:19:01;61.93;;;22.33;;
40983;SDS011;26714;51.332;12.406;2024-01-11T06:21:27;65.17;;;22.37;;
40983;SDS011;26714;51.332;12.406;2024-01-11T06:23:52;58.13;;;22.43;;
40983;SDS011;26714;51.332;12.406;2024-01-11T06:26:18;68.27;;;22.70;;
40983;SDS011;26714;51.332;12.406;2024-01-11T06:28:44;68.47;;;22.03;;
40983;SDS011;26714;51.332;12.406;2024-01-11T06:31:09;58.70;;;23.03;;
40983;SDS011;26714;51.332;12.406;2024-01-11T06:33:36;62.80;;;23.57;;
40983;SDS011;26714;51.332;12.406;2024-01-11T06:36:05;68.50;;;22.80;;
40983;SDS011;26714;51.332;12.406;2024-01-11T06:38:34;62.87;;;21.67;;
40983;SDS011;26714;51.332;12.406;2024-01-11T06:40:59;58.65;;;22.73;;
40983;SDS011;26714;51.332;12.406;2024-01-11T06:43:27;66.40;;;23.37;;
40983;SDS011;26714;51.332;12.406;2024-01-11T06:45:53;63.00;;;21.27;;
40983;SDS011;26714;51.332;12.406;2024-01-11T06:48:18;61.23;;;21.67;;
40983;SDS011;26714;51.332;12.406;2024-01-11T06:50:45;59.27;;;21.00;;
40983;SDS011;26714;51.332;12.406;2024-01-11T06:53:12;69.23;;;22.23;;
40983;SDS011;26714;51.332;12.406;2024-01-11T06:55:38;61.93;;;20.93;;
40983;SDS011;26714;51.332;12.406;2024-01-11T06:58:06;69.72;;;23.13;;
40983;SDS011;26714;51.332;12.406;2024-01-11T07:00:32;70.93;;;21.70;;
40983;SDS011;26714;51.332;12.406;2024-01-11T07:02:57;65.80;;;24.00;;
40983;SDS011;26714;51.332;12.406;2024-01-11T07:05:25;62.72;;;21.10;;
40983;SDS011;26714;51.332;12.406;2024-01-11T07:07:52;62.63;;;23.87;;
40983;SDS011;26714;51.332;12.406;2024-01-11T07:10:18;70.10;;;24.23;;
40983;SDS011;26714;51.332;12.406;2024-01-11T07:12:43;69.10;;;22.43;;
40983;SDS011;26714;51.332;12.406;2024-01-11T07:15:11;67.63;;;22.80;;
40983;SDS011;26714;51.332;12.406;2024-01-11T07:17:36;64.00;;;21.33;;
40983;SDS011;26714;51.332;12.406;2024-01-11T07:20:02;68.73;;;21.30;;
40983;SDS011;26714;51.332;12.406;2024-01-11T07:22:29;64.10;;;21.13;;
40983;SDS011;26714;51.332;12.406;2024-01-11T07:24:55;67.47;;;22.50;;
40983;SDS011;26714;51.332;12.406;2024-01-11T07:27:21;65.57;;;23.03;;
40983;SDS011;26714;51.332;12.406;2024-01-11T07:29:46;75.03;;;26.13;;
40983;SDS011;26714;51.332;12.406;2024-01-11T07:32:12;68.57;;;23.53;;
40983;SDS011;26714;51.332;12.406;2024-01-11T07:34:39;66.07;;;25.37;;
40983;SDS011;26714;51.332;12.406;2024-01-11T07:37:04;62.67;;;22.57;;
40983;SDS011;26714;51.332;12.406;2024-01-11T07:39:30;64.13;;;23.17;;
40983;SDS011;26714;51.332;12.406;2024-01-11T07:41:56;63.63;;;22.63;;
40983;SDS011;26714;51.332;12.406;2024-01-11T07:44:23;74.60;;;22.43;;
40983;SDS011;26714;51.332;12.406;2024-01-11T07:46:50;58.83;;;22.50;;
40983;SDS011;26714;51.332;12.406;2024-01-11T07:49:15;81.40;;;24.90;;
40983;SDS011;26714;51.332;12.406;2024-01-11T07:51:41;61.63;;;23.70;;
40983;SDS011;26714;51.332;12.406;2024-01-11T07:54:07;76.33;;;23.60;;
40983;SDS011;26714;51.332;12.406;2024-01-11T07:56:34;77.67;;;25.87;;
40983;SDS011;26714;51.332;12.406;2024-01-11T07:59:04;70.43;;;22.40;;
40983;SDS011;26714;51.332;12.406;2024-01-11T08:03:55;61.37;;;22.27;;
40983;SDS011;26714;51.332;12.406;2024-01-11T08:06:23;70.87;;;24.07;;
40983;SDS011;26714;51.332;12.406;2024-01-11T08:08:49;68.78;;;25.13;;
40983;SDS011;26714;51.332;12.406;2024-01-11T08:11:20;64.63;;;22.57;;
40983;SDS011;26714;51.332;12.406;2024-01-11T08:13:48;76.07;;;25.47;;
40983;SDS011;26714;51.332;12.406;2024-01-11T08:16:15;69.33;;;24.30;;
40983;SDS011;26714;51.332;12.406;2024-01-11T08:18:42;71.17;;;25.40;;
40983;SDS011;26714;51.332;12.406;2024-01-11T08:21:09;68.90;;;26.13;;
40983;SDS011;26714;51.332;12.406;2024-01-11T08:23:39;71.07;;;27.13;;
40983;SDS011;26714;51.332;12.406;2024-01-11T08:26:10;70.37;;;23.70;;
40983;SDS011;26714;51.332;12.406;2024-01-11T08:28:36;67.57;;;25.73;;
40983;SDS011;26714;51.332;12.406;2024-01-11T08:31:06;77.77;;;25.10;;
40983;SDS011;26714;51.332;12.406;2024-01-11T08:33:31;75.60;;;25.90;;
40983;SDS011;26714;51.332;12.406;2024-01-11T08:35:57;75.87;;;25.33;;
40983;SDS011;26714;51.332;12.406;2024-01-11T08:38:23;63.93;;;24.03;;
40983;SDS011;26714;51.332;12.406;2024-01-11T08:40:50;72.80;;;25.77;;
40983;SDS011;26714;51.332;12.406;2024-01-11T08:43:16;72.87;;;24.30;;
40983;SDS011;26714;51.332;12.406;2024-01-11T08:45:43;60.57;;;21.10;;
40983;SDS011;26714;51.332;12.406;2024-01-11T08:48:10;60.93;;;22.73;;
40983;SDS011;26714;51.332;12.406;2024-01-11T08:50:37;69.97;;;22.80;;
40983;SDS011;26714;51.332;12.406;2024-01-11T08:53:05;65.28;;;24.98;;
40983;SDS011;26714;51.332;12.406;2024-01-11T08:55:31;71.47;;;24.23;;
40983;SDS011;26714;51.332;12.406;2024-01-11T08:57:56;71.87;;;24.27;;
40983;SDS011;26714;51.332;12.406;2024-01-11T09:00:22;72.60;;;25.83;;
40983;SDS011;26714;51.332;12.406;2024-01-11T09:02:47;65.03;;;24.07;;
40983;SDS011;26714;51.332;12.406;2024-01-11T09:05:16;75.73;;;26.60;;
40983;SDS011;26714;51.332;12.406;2024-01-11T09:07:43;83.33;;;26.87;;
40983;SDS011;26714;51.332;12.406;2024-01-11T09:10:10;72.57;;;23.67;;
40983;SDS011;26714;51.332;12.406;2024-01-11T09:12:40;74.57;;;24.70;;
40983;SDS011;26714;51.332;12.406;2024-01-11T09:15:06;68.53;;;25.00;;
40983;SDS011;26714;51.332;12.406;2024-01-11T09:17:34;49.65;;;18.95;;
40983;SDS011;26714;51.332;12.406;2024-01-11T09:20:06;74.00;;;25.60;;
40983;SDS011;26714;51.332;12.406;2024-01-11T09:28:33;68.20;;;24.57;;
40983;SDS011;26714;51.332;12.406;2024-01-11T09:31:02;72.27;;;24.30;;
40983;SDS011;26714;51.332;12.406;2024-01-11T09:33:32;70.72;;;26.90;;
40983;SDS011;26714;51.332;12.406;2024-01-11T09:36:02;76.97;;;28.07;;
40983;SDS011;26714;51.332;12.406;2024-01-11T09:38:31;74.33;;;26.60;;
40983;SDS011;26714;51.332;12.406;2024-01-11T09:41:04;85.60;;;27.57;;
40983;SDS011;26714;51.332;12.406;2024-01-11T09:43:33;67.70;;;26.10;;
40983;SDS011;26714;51.332;12.406;2024-01-11T09:46:04;74.60;;;26.80;;
40983;SDS011;26714;51.332;12.406;2024-01-11T09:48:34;68.53;;;24.23;;
40983;SDS011;26714;51.332;12.406;2024-01-11T09:51:03;68.07;;;22.63;;
40983;SDS011;26714;51.332;12.406;2024-01-11T09:57:09;74.37;;;24.60;;
40983;SDS011;26714;51.332;12.406;2024-01-11T09:59:47;70.77;;;25.53;;
40983;SDS011;26714;51.332;12.406;2024-01-11T10:03:41;71.43;;;24.43;;
40983;SDS011;26714;51.332;12.406;2024-01-11T10:07:04;69.43;;;24.43;;
40983;SDS011;26714;51.332;12.406;2024-01-11T10:11:03;66.60;;;24.23;;
40983;SDS011;26714;51.332;12.406;2024-01-11T10:14:18;64.40;;;22.53;;
40983;SDS011;26714;51.332;12.406;2024-01-11T10:17:53;80.10;;;24.93;;
40983;SDS011;26714;51.332;12.406;2024-01-11T10:25:16;71.93;;;23.80;;
40983;SDS011;26714;51.332;12.406;2024-01-11T10:27:43;74.50;;;24.33;;
40983;SDS011;26714;51.332;12.406;2024-01-11T10:30:14;79.80;;;27.07;;
40983;SDS011;26714;51.332;12.406;2024-01-11T10:32:43;74.33;;;27.10;;
40983;SDS011;26714;51.332;12.406;2024-01-11T10:35:10;71.07;;;25.33;;
40983;SDS011;26714;51.332;12.406;2024-01-11T10:37:36;81.53;;;26.43;;
40983;SDS011;26714;51.332;12.406;2024-01-11T10:40:05;77.85;;;26.23;;
40983;SDS011;26714;51.332;12.406;2024-01-11T10:42:44;75.73;;;27.50;;
40983;SDS011;26714;51.332;12.406;2024-01-11T10:45:14;72.77;;;25.77;;
40983;SDS011;26714;51.332;12.406;2024-01-11T10:47:42;64.27;;;24.40;;
40983;SDS011;26714;51.332;12.406;2024-01-11T10:50:12;70.90;;;25.00;;
40983;SDS011;26714;51.332;12.406;2024-01-11T10:52:41;80.13;;;27.10;;
40983;SDS011;26714;51.332;12.406;2024-01-11T10:55:08;73.60;;;26.80;;
40983;SDS011;26714;51.332;12.406;2024-01-11T10:57:35;72.47;;;25.50;;
40983;SDS011;26714;51.332;12.406;2024-01-11T11:00:03;78.37;;;25.30;;
40983;SDS011;26714;51.332;12.406;2024-01-11T11:02:31;61.10;;;22.65;;
40983;SDS011;26714;51.332;12.406;2024-01-11T11:04:59;65.03;;;25.70;;
40983;SDS011;26714;51.332;12.406;2024-01-11T11:07:29;80.67;;;28.10;;
40983;SDS011;26714;51.332;12.406;2024-01-11T11:09:55;59.90;;;25.13;;
40983;SDS011;26714;51.332;12.406;2024-01-11T11:12:21;66.90;;;25.60;;
40983;SDS011;26714;51.332;12.406;2024-01-11T11:14:47;78.20;;;28.70;;
40983;SDS011;26714;51.332;12.406;2024-01-11T11:19:42;77.97;;;26.13;;
40983;SDS011;26714;51.332;12.406;2024-01-11T11:22:11;72.30;;;27.43;;
40983;SDS011;26714;51.332;12.406;2024-01-11T11:24:40;75.23;;;27.63;;
40983;SDS011;26714;51.332;12.406;2024-01-11T11:27:05;80.40;;;29.30;;
40983;SDS011;26714;51.332;12.406;2024-01-11T11:29:33;76.07;;;28.03;;
40983;SDS011;26714;51.332;12.406;2024-01-11T11:32:00;64.53;;;26.07;;
40983;SDS011;26714;51.332;12.406;2024-01-11T11:34:41;69.53;;;25.97;;
40983;SDS011;26714;51.332;12.406;2024-01-11T11:37:07;78.83;;;27.87;;
40983;SDS011;26714;51.332;12.406;2024-01-11T11:39:35;75.07;;;27.57;;
40983;SDS011;26714;51.332;12.406;2024-01-11T11:42:03;66.60;;;27.03;;
40983;SDS011;26714;51.332;12.406;2024-01-11T11:44:30;77.47;;;28.00;;
40983;SDS011;26714;51.332;12.406;2024-01-11T11:47:04;73.27;;;27.13;;
40983;SDS011;26714;51.332;12.406;2024-01-11T11:52:29;74.95;;;28.08;;
40983;SDS011;26714;51.332;12.406;2024-01-11T11:55:08;70.03;;;26.95;;
40983;SDS011;26714;51.332;12.406;2024-01-11T11:57:34;71.20;;;26.43;;
40983;SDS011;26714;51.332;12.406;2024-01-11T12:00:02;71.67;;;25.67;;
40983;SDS011;26714;51.332;12.406;2024-01-11T12:02:36;68.80;;;27.13;;
40983;SDS011;26714;51.332;12.406;2024-01-11T12:05:02;74.00;;;27.23;;
40983;SDS011;26714;51.332;12.406;2024-01-11T12:07:29;78.43;;;27.23;;
40983;SDS011;26714;51.332;12.406;2024-01-11T12:09:54;68.57;;;24.13;;
40983;SDS011;26714;51.332;12.406;2024-01-11T12:12:20;64.93;;;23.20;;
40983;SDS011;26714;51.332;12.406;2024-01-11T12:14:46;73.73;;;27.03;;
40983;SDS011;26714;51.332;12.406;2024-01-11T12:17:12;75.77;;;26.23;;
40983;SDS011;26714;51.332;12.406;2024-01-11T12:19:38;69.57;;;26.00;;
40983;SDS011;26714;51.332;12.406;2024-01-11T12:22:04;66.27;;;23.80;;
40983;SDS011;26714;51.332;12.406;2024-01-11T12:24:29;69.03;;;24.93;;
40983;SDS011;26714;51.332;12.406;2024-01-11T12:26:56;61.87;;;23.10;;
40983;SDS011;26714;51.332;12.406;2024-01-11T12:29:23;62.47;;;24.50;;
40983;SDS011;26714;51.332;12.406;2024-01-11T12:31:49;71.00;;;22.93;;
40983;SDS011;26714;51.332;12.406;2024-01-11T12:34:15;62.17;;;23.90;;
40983;SDS011;26714;51.332;12.406;2024-01-11T12:36:41;71.50;;;25.87;;
40983;SDS011;26714;51.332;12.406;2024-01-11T12:39:07;66.40;;;25.70;;
40983;SDS011;26714;51.332;12.406;2024-01-11T12:41:34;74.00;;;25.90;;
40983;SDS011;26714;51.332;12.406;2024-01-11T12:44:00;59.08;;;24.15;;
40983;SDS011;26714;51.332;12.406;2024-01-11T12:46:26;83.23;;;27.03;;
40983;SDS011;26714;51.332;12.406;2024-01-11T12:48:51;73.07;;;25.67;;
40983;SDS011;26714;51.332;12.406;2024-01-11T12:51:17;72.47;;;25.83;;
40983;SDS011;26714;51.332;12.406;2024-01-11T12:53:47;63.47;;;25.80;;
40983;SDS011;26714;51.332;12.406;2024-01-11T12:56:14;64.70;;;24.02;;
40983;SDS011;26714;51.332;12.406;2024-01-11T12:58:40;62.30;;;23.77;;
40983;SDS011;26714;51.332;12.406;2024-01-11T13:01:06;58.40;;;24.40;;
40983;SDS011;26714;51.332;12.406;2024-01-11T13:03:34;62.15;;;25.10;;
40983;SDS011;26714;51.332;12.406;2024-01-11T13:06:26;60.03;;;25.17;;
40983;SDS011;26714;51.332;12.406;2024-01-11T13:08:51;57.47;;;24.33;;
40983;SDS011;26714;51.332;12.406;2024-01-11T13:11:17;61.43;;;24.30;;
40983;SDS011;26714;51.332;12.406;2024-01-11T13:13:44;64.95;;;25.77;;
40983;SDS011;26714;51.332;12.406;2024-01-11T13:16:11;64.53;;;26.33;;
40983;SDS011;26714;51.332;12.406;2024-01-11T13:18:39;62.22;;;25.92;;
40983;SDS011;26714;51.332;12.406;2024-01-11T13:21:05;68.07;;;27.25;;
40983;SDS011;26714;51.332;12.406;2024-01-11T13:23:32;77.63;;;28.83;;
40983;SDS011;26714;51.332;12.406;2024-01-11T13:25:59;70.22;;;27.23;;
40983;SDS011;26714;51.332;12.406;2024-01-11T13:28:25;67.50;;;25.83;;
40983;SDS011;26714;51.332;12.406;2024-01-11T13:30:52;66.32;;;26.58;;
40983;SDS011;26714;51.332;12.406;2024-01-11T13:33:18;69.65;;;25.63;;
40983;SDS011;26714;51.332;12.406;2024-01-11T13:35:44;59.85;;;24.33;;
40983;SDS011;26714;51.332;12.406;2024-01-11T13:38:10;67.28;;;27.00;;
40983;SDS011;26714;51.332;12.406;2024-01-11T13:40:36;63.15;;;27.10;;
40983;SDS011;26714;51.332;12.406;2024-01-11T13:43:03;63.72;;;24.58;;
40983;SDS011;26714;51.332;12.406;2024-01-11T13:45:29;61.05;;;25.38;;
40983;SDS011;26714;51.332;12.406;2024-01-11T13:47:58;62.67;;;26.50;;
40983;SDS011;26714;51.332;12.406;2024-01-11T13:50:24;76.97;;;27.25;;
40983;SDS011;26714;51.332;12.406;2024-01-11T13:52:50;56.33;;;24.73;;
40983;SDS011;26714;51.332;12.406;2024-01-11T13:55:16;57.50;;;23.85;;
40983;SDS011;26714;51.332;12.406;2024-01-11T13:57:43;64.88;;;23.05;;
40983;SDS011;26714;51.332;12.406;2024-01-11T14:00:09;57.03;;;23.70;;
40983;SDS011;26714;51.332;12.406;2024-01-11T14:02:36;56.45;;;22.90;;
40983;SDS011;26714;51.332;12.406;2024-01-11T14:05:02;50.53;;;21.05;;
40983;SDS011;26714;51.332;12.406;2024-01-11T14:07:28;41.47;;;18.98;;
40983;SDS011;26714;51.332;12.406;2024-01-11T14:09:55;46.00;;;18.30;;
40983;SDS011;26714;51.332;12.406;2024-01-11T14:12:21;47.00;;;17.80;;
40983;SDS011;26714;51.332;12.406;2024-01-11T14:14:46;42.45;;;17.15;;
40983;SDS011;26714;51.332;12.406;2024-01-11T14:17:12;45.72;;;16.92;;
40983;SDS011;26714;51.332;12.406;2024-01-11T14:19:38;44.08;;;17.63;;
40983;SDS011;26714;51.332;12.406;2024-01-11T14:22:04;42.72;;;17.30;;
40983;SDS011;26714;51.332;12.406;2024-01-11T14:24:30;41.13;;;17.17;;
40983;SDS011;26714;51.332;12.406;2024-01-11T14:26:55;43.78;;;18.63;;
40983;SDS011;26714;51.332;12.406;2024-01-11T14:29:21;39.45;;;17.00;;
40983;SDS011;26714;51.332;12.406;2024-01-11T14:31:46;44.00;;;18.42;;
40983;SDS011;26714;51.332;12.406;2024-01-11T14:34:13;44.03;;;17.33;;
40983;SDS011;26714;51.332;12.406;2024-01-11T14:36:38;42.47;;;17.98;;
40983;SDS011;26714;51.332;12.406;2024-01-11T14:39:04;40.53;;;16.90;;